createdAt,value
2018-09-26T00:02:16.702Z,63.13
2018-09-26T00:04:47.867Z,63.07
2018-09-26T00:07:16.030Z,62.36
2018-09-26T00:09:44.216Z,62.53
2018-09-26T00:12:12.426Z,63.18
2018-09-26T00:14:40.599Z,63.37
2018-09-26T00:17:08.799Z,62.68
2018-09-26T00:19:36.970Z,63.90
2018-09-26T00:22:05.182Z,63.83
2018-09-26T00:24:33.361Z,62.58
2018-09-26T00:27:01.553Z,63.70
2018-09-26T00:29:29.703Z,63.39
2018-09-26T00:31:57.856Z,63.89
2018-09-26T00:34:26.032Z,63.22
2018-09-26T00:36:54.226Z,63.84
2018-09-26T00:39:22.462Z,64.45
2018-09-26T00:41:50.658Z,63.97
2018-09-26T00:44:18.832Z,63.97
2018-09-26T00:46:47.002Z,63.53
2018-09-26T00:49:15.180Z,63.63
2018-09-26T00:51:43.371Z,63.84
2018-09-26T00:54:11.536Z,63.67
2018-09-26T00:56:39.695Z,63.18
2018-09-26T00:59:07.877Z,64.44
2018-09-26T01:01:36.034Z,64.15
2018-09-26T01:04:04.220Z,64.35
2018-09-26T01:06:32.378Z,64.46
2018-09-26T01:09:00.555Z,64.42
2018-09-26T01:11:28.740Z,63.81
2018-09-26T01:13:56.946Z,64.55
2018-09-26T01:16:25.116Z,63.81
2018-09-26T01:18:53.308Z,64.33
2018-09-26T01:21:21.498Z,64.60
2018-09-26T01:23:49.667Z,65.04
2018-09-26T01:26:17.883Z,64.23
2018-09-26T01:28:46.051Z,64.44
2018-09-26T01:31:14.304Z,63.74
2018-09-26T01:33:42.474Z,64.47
2018-09-26T01:36:10.667Z,63.95
2018-09-26T01:38:38.834Z,64.41
2018-09-26T01:41:07.024Z,64.43
2018-09-26T01:43:35.191Z,64.54
2018-09-26T01:46:03.395Z,64.92
2018-09-26T01:48:31.564Z,63.89
2018-09-26T01:50:59.739Z,64.04
2018-09-26T01:53:27.932Z,64.41
2018-09-26T01:55:56.130Z,64.09
2018-09-26T01:58:24.345Z,64.31
2018-09-26T02:00:52.519Z,64.50
2018-09-26T02:03:20.696Z,63.98
2018-09-26T02:05:48.891Z,63.91
2018-09-26T02:08:17.083Z,64.90
2018-09-26T02:10:45.270Z,64.40
2018-09-26T02:13:13.444Z,63.95
2018-09-26T02:15:41.606Z,64.10
2018-09-26T02:18:09.762Z,65.06
2018-09-26T02:20:37.938Z,64.58
2018-09-26T02:23:06.179Z,64.21
2018-09-26T02:25:34.347Z,64.94
2018-09-26T02:28:02.524Z,65.29
2018-09-26T02:30:30.683Z,64.13
2018-09-26T02:32:58.884Z,64.75
2018-09-26T02:35:27.119Z,64.67
2018-09-26T02:37:55.323Z,64.48
2018-09-26T02:40:23.499Z,64.98
2018-09-26T02:42:51.666Z,64.74
2018-09-26T02:45:19.864Z,64.79
2018-09-26T02:47:48.034Z,65.13
2018-09-26T02:50:16.214Z,64.83
2018-09-26T02:52:44.407Z,65.25
2018-09-26T02:55:12.580Z,65.42
2018-09-26T02:57:40.759Z,64.41
2018-09-26T03:00:08.976Z,64.66
2018-09-26T03:02:37.151Z,64.72
2018-09-26T03:05:05.398Z,64.78
2018-09-26T03:07:33.572Z,64.49
2018-09-26T03:10:01.749Z,64.75
2018-09-26T03:12:29.903Z,65.25
2018-09-26T03:14:58.055Z,65.09
2018-09-26T03:17:26.341Z,65.02
2018-09-26T03:19:54.471Z,65.07
2018-09-26T03:22:22.686Z,64.49
2018-09-26T03:24:50.846Z,65.36
2018-09-26T03:27:19.020Z,64.97
2018-09-26T03:29:47.189Z,64.59
2018-09-26T03:32:15.368Z,64.31
2018-09-26T03:34:43.603Z,64.80
2018-09-26T03:37:11.782Z,65.21
2018-09-26T03:39:39.960Z,64.69
2018-09-26T03:42:08.175Z,65.07
2018-09-26T03:44:36.390Z,64.52
2018-09-26T03:47:04.564Z,64.93
2018-09-26T03:49:32.733Z,65.18
2018-09-26T03:52:00.887Z,64.88
2018-09-26T03:54:29.055Z,65.43
2018-09-26T03:56:57.318Z,64.62
2018-09-26T03:59:25.544Z,65.75
2018-09-26T04:01:53.719Z,65.07
2018-09-26T04:04:21.896Z,65.79
2018-09-26T04:06:50.079Z,66.20
2018-09-26T04:09:18.245Z,65.47
2018-09-26T04:11:46.450Z,65.87
2018-09-26T04:14:14.712Z,65.86
2018-09-26T04:16:42.871Z,66.25
2018-09-26T04:19:11.095Z,65.68
2018-09-26T04:21:39.318Z,65.56
2018-09-26T04:24:07.655Z,65.77
2018-09-26T04:26:35.904Z,65.68
2018-09-26T04:29:04.039Z,66.09
2018-09-26T04:31:32.231Z,65.67
2018-09-26T04:34:00.439Z,66.39
2018-09-26T04:36:28.603Z,65.72
2018-09-26T04:38:56.952Z,65.16
2018-09-26T04:41:24.952Z,65.95
2018-09-26T04:43:53.158Z,64.93
2018-09-26T04:46:21.400Z,64.63
2018-09-26T04:48:49.561Z,64.83
2018-09-26T04:51:17.735Z,65.44
2018-09-26T04:53:45.943Z,65.21
2018-09-26T04:56:14.227Z,66.01
2018-09-26T04:58:42.408Z,65.32
2018-09-26T05:01:10.575Z,65.97
2018-09-26T05:03:38.749Z,65.93
2018-09-26T05:06:06.957Z,65.38
2018-09-26T05:08:35.141Z,64.90
2018-09-26T05:11:03.328Z,64.79
2018-09-26T05:13:31.524Z,64.53
2018-09-26T05:15:59.702Z,65.33
2018-09-26T05:18:27.910Z,64.97
2018-09-26T05:20:56.088Z,64.92
2018-09-26T05:23:24.255Z,64.54
2018-09-26T05:25:52.435Z,65.23
2018-09-26T05:28:20.586Z,64.99
2018-09-26T05:30:48.759Z,64.97
2018-09-26T05:33:17.008Z,64.39
2018-09-26T05:35:45.178Z,64.40
2018-09-26T05:38:13.349Z,63.97
2018-09-26T05:40:41.515Z,64.61
2018-09-26T05:43:09.747Z,64.63
2018-09-26T05:45:37.946Z,65.07
2018-09-26T05:48:06.216Z,65.53
2018-09-26T05:50:34.388Z,64.97
2018-09-26T05:53:02.556Z,65.83
2018-09-26T05:55:30.732Z,65.29
2018-09-26T05:57:58.935Z,65.10
2018-09-26T06:00:27.124Z,65.43
2018-09-26T06:02:55.360Z,65.86
2018-09-26T06:05:23.533Z,65.72
2018-09-26T06:07:51.767Z,65.53
2018-09-26T06:10:26.688Z,65.48
2018-09-26T06:12:54.915Z,66.31
2018-09-26T06:15:23.143Z,65.96
2018-09-26T06:17:52.274Z,65.32
2018-09-26T06:20:20.490Z,65.36
2018-09-26T06:22:48.654Z,66.21
2018-09-26T06:25:16.891Z,66.30
2018-09-26T06:27:45.069Z,65.75
2018-09-26T06:30:13.226Z,65.58
2018-09-26T06:32:41.406Z,64.79
2018-09-26T06:35:09.580Z,64.45
2018-09-26T06:37:37.753Z,63.29
2018-09-26T06:40:06.438Z,62.50
2018-09-26T06:42:34.604Z,62.36
2018-09-26T06:45:02.771Z,62.74
2018-09-26T06:47:31.013Z,60.92
2018-09-26T06:49:59.158Z,61.76
2018-09-26T06:52:27.318Z,61.44
2018-09-26T06:54:55.487Z,60.61
2018-09-26T06:57:23.675Z,60.95
2018-09-26T06:59:51.911Z,60.69
2018-09-26T07:02:20.072Z,60.80
2018-09-26T07:04:48.231Z,61.01
2018-09-26T07:07:16.419Z,60.60
2018-09-26T07:09:44.637Z,61.37
2018-09-26T07:12:12.879Z,60.12
2018-09-26T07:14:40.994Z,60.13
2018-09-26T07:17:09.138Z,60.88
2018-09-26T07:19:37.331Z,60.04
2018-09-26T07:22:05.572Z,59.14
2018-09-26T07:24:33.983Z,60.67
2018-09-26T07:27:02.134Z,59.78
2018-09-26T07:29:30.291Z,59.88
2018-09-26T07:31:58.476Z,60.39
2018-09-26T07:34:31.952Z,60.26
2018-09-26T07:37:00.478Z,61.06
2018-09-26T07:39:28.666Z,60.20
2018-09-26T07:41:56.843Z,61.13
2018-09-26T07:44:25.027Z,60.30
2018-09-26T07:46:53.270Z,59.08
2018-09-26T07:49:21.422Z,60.19
2018-09-26T07:51:49.599Z,59.85
2018-09-26T07:54:18.305Z,60.35
2018-09-26T07:56:46.543Z,60.33
2018-09-26T07:59:14.774Z,59.55
2018-09-26T08:01:42.990Z,59.98
2018-09-26T08:04:11.147Z,59.71
2018-09-26T08:06:39.320Z,58.47
2018-09-26T08:09:08.249Z,58.08
2018-09-26T08:11:36.505Z,58.40
2018-09-26T08:14:04.946Z,56.92
2018-09-26T08:16:33.231Z,56.72
2018-09-26T08:19:01.395Z,57.41
2018-09-26T08:21:29.643Z,57.65
2018-09-26T08:23:57.910Z,58.83
2018-09-26T08:26:26.017Z,59.85
2018-09-26T08:28:54.383Z,59.03
2018-09-26T08:31:22.543Z,58.38
2018-09-26T08:33:50.927Z,57.08
2018-09-26T08:36:19.094Z,55.76
2018-09-26T08:38:47.263Z,56.24
2018-09-26T08:41:15.439Z,55.69
2018-09-26T08:43:43.667Z,56.58
2018-09-26T08:46:11.805Z,56.18
2018-09-26T08:48:39.983Z,56.22
2018-09-26T08:51:08.230Z,57.90
2018-09-26T08:53:36.436Z,56.67
2018-09-26T08:56:04.590Z,56.57
2018-09-26T08:58:32.798Z,55.25
2018-09-26T09:01:00.952Z,55.85
2018-09-26T09:03:29.116Z,57.67
2018-09-26T09:05:57.274Z,57.27
2018-09-26T09:08:25.435Z,56.71
2018-09-26T09:10:53.603Z,56.67
2018-09-26T09:13:21.772Z,55.63
2018-09-26T09:15:49.951Z,56.36
2018-09-26T09:18:18.110Z,55.12
2018-09-26T09:20:46.268Z,55.64
2018-09-26T09:23:14.435Z,57.06
2018-09-26T09:25:42.602Z,55.22
2018-09-26T09:28:10.767Z,55.80
2018-09-26T09:30:39.015Z,53.72
2018-09-26T09:33:07.170Z,52.01
2018-09-26T09:35:35.371Z,51.40
2018-09-26T09:38:03.551Z,53.09
2018-09-26T09:40:31.706Z,51.55
2018-09-26T09:42:59.906Z,51.90
2018-09-26T09:45:28.043Z,52.03
2018-09-26T09:47:56.231Z,52.05
2018-09-26T09:50:24.557Z,50.66
2018-09-26T09:52:52.589Z,50.31
2018-09-26T09:55:20.800Z,50.10
2018-09-26T09:57:49.018Z,50.01
2018-09-26T10:00:17.192Z,49.76
2018-09-26T10:02:45.443Z,51.41
2018-09-26T10:05:13.515Z,51.80
2018-09-26T10:07:41.683Z,50.35
2018-09-26T10:10:09.860Z,49.53
2018-09-26T10:12:38.023Z,51.70
2018-09-26T10:15:06.200Z,52.74
2018-09-26T10:17:34.384Z,51.11
2018-09-26T10:20:02.527Z,50.90
2018-09-26T10:22:30.764Z,52.39
2018-09-26T10:24:58.981Z,51.87
2018-09-26T10:27:27.087Z,51.03
2018-09-26T10:29:55.248Z,51.38
2018-09-26T10:32:23.519Z,50.11
2018-09-26T10:34:51.668Z,50.02
2018-09-26T10:37:19.802Z,48.38
2018-09-26T10:39:47.958Z,48.16
2018-09-26T10:42:16.163Z,47.22
2018-09-26T10:44:44.330Z,47.43
2018-09-26T10:47:12.498Z,47.50
2018-09-26T10:49:40.681Z,48.74
2018-09-26T10:52:08.823Z,47.36
2018-09-26T10:54:37.007Z,46.36
2018-09-26T10:57:05.174Z,46.46
2018-09-26T10:59:33.351Z,46.74
2018-09-26T11:02:01.588Z,45.73
2018-09-26T11:04:29.686Z,45.93
2018-09-26T11:06:57.848Z,44.63
2018-09-26T11:09:26.060Z,45.47
2018-09-26T11:11:54.212Z,44.45
2018-09-26T11:14:22.467Z,43.92
2018-09-26T11:16:50.569Z,43.60
2018-09-26T11:19:18.877Z,43.26
2018-09-26T11:21:47.077Z,43.24
2018-09-26T11:24:15.242Z,43.30
2018-09-26T11:26:43.467Z,41.30
2018-09-26T11:29:11.571Z,40.70
2018-09-26T11:31:39.783Z,41.75
2018-09-26T11:34:08.019Z,42.38
2018-09-26T11:36:36.199Z,41.34
2018-09-26T11:39:05.493Z,40.19
2018-09-26T11:41:33.664Z,39.90
2018-09-26T11:44:01.838Z,37.76
2018-09-26T11:46:30.043Z,38.18
2018-09-26T11:48:58.232Z,37.79
2018-09-26T11:51:26.399Z,37.15
2018-09-26T11:53:54.581Z,35.95
2018-09-26T11:56:22.800Z,36.22
2018-09-26T11:58:51.004Z,36.28
2018-09-26T12:01:19.179Z,36.24
2018-09-26T12:03:47.334Z,36.89
2018-09-26T12:06:15.531Z,35.94
2018-09-26T12:08:49.939Z,35.55
2018-09-26T12:11:18.126Z,36.87
2018-09-26T12:13:46.318Z,35.84
2018-09-26T12:16:14.496Z,36.59
2018-09-26T12:18:42.624Z,37.30
2018-09-26T12:21:10.791Z,36.60
2018-09-26T12:23:38.997Z,35.07
2018-09-26T12:26:07.250Z,34.12
2018-09-26T12:28:35.415Z,35.26
2018-09-26T12:31:03.591Z,33.59
2018-09-26T12:33:31.772Z,33.65
2018-09-26T12:35:59.958Z,32.90
2018-09-26T12:38:28.132Z,31.94
2018-09-26T12:40:56.307Z,32.03
2018-09-26T12:43:24.524Z,31.52
2018-09-26T12:45:52.692Z,32.10
2018-09-26T12:48:20.901Z,31.12
2018-09-26T12:50:49.045Z,31.19
2018-09-26T12:53:17.275Z,29.90
2018-09-26T12:55:45.459Z,29.59
2018-09-26T12:58:13.730Z,29.72
2018-09-26T13:00:41.921Z,28.30
2018-09-26T13:03:10.063Z,27.73
2018-09-26T13:05:38.247Z,29.08
2018-09-26T13:08:06.656Z,28.19
2018-09-26T13:10:34.800Z,26.93
2018-09-26T13:13:02.976Z,29.18
2018-09-26T13:15:31.146Z,29.15
2018-09-26T13:17:59.321Z,28.99
2018-09-26T13:20:27.683Z,30.17
2018-09-26T13:22:55.785Z,29.55
2018-09-26T13:25:24.014Z,29.02
2018-09-26T13:27:52.152Z,29.93
2018-09-26T13:30:20.381Z,30.48
2018-09-26T13:32:48.532Z,32.42
2018-09-26T13:35:16.738Z,31.65
2018-09-26T13:37:44.943Z,32.04
2018-09-26T13:40:13.174Z,33.20
2018-09-26T13:42:41.332Z,33.19
2018-09-26T13:45:09.563Z,31.95
2018-09-26T13:47:37.768Z,33.02
2018-09-26T13:50:06.040Z,31.50
2018-09-26T13:52:34.148Z,31.64
2018-09-26T13:55:02.411Z,31.43
2018-09-26T13:57:30.646Z,32.30
2018-09-26T13:59:58.860Z,32.27
2018-09-26T14:02:27.415Z,32.42
2018-09-26T14:04:55.482Z,33.56
2018-09-26T14:07:23.662Z,32.96
2018-09-26T14:09:51.870Z,34.01
2018-09-26T14:12:20.079Z,33.22
2018-09-26T14:14:48.219Z,33.85
2018-09-26T14:17:16.417Z,34.32
2018-09-26T14:19:44.603Z,35.96
2018-09-26T14:22:12.912Z,35.65
2018-09-26T14:24:41.094Z,34.77
2018-09-26T14:27:09.348Z,34.30
2018-09-26T14:29:37.582Z,34.98
2018-09-26T14:32:05.892Z,35.30
2018-09-26T14:34:34.072Z,35.66
2018-09-26T14:37:02.327Z,34.51
2018-09-26T14:39:30.640Z,34.96
2018-09-26T14:41:58.694Z,35.36
2018-09-26T14:44:27.025Z,35.32
2018-09-26T14:46:55.143Z,36.68
2018-09-26T14:49:23.459Z,35.95
2018-09-26T14:51:51.627Z,37.02
2018-09-26T14:54:19.804Z,35.92
2018-09-26T14:56:48.086Z,34.78
2018-09-26T14:59:16.264Z,35.37
2018-09-26T15:01:44.450Z,36.57
2018-09-26T15:04:12.754Z,36.67
2018-09-26T15:06:40.822Z,36.97
2018-09-26T15:09:08.995Z,37.45
2018-09-26T15:11:37.165Z,37.52
2018-09-26T15:14:05.373Z,36.85
2018-09-26T15:16:33.531Z,37.34
2018-09-26T15:19:01.800Z,36.51
2018-09-26T15:21:30.069Z,36.67
2018-09-26T15:23:58.302Z,36.77
2018-09-26T15:26:26.590Z,37.55
2018-09-26T15:28:54.719Z,38.16
2018-09-26T15:31:22.884Z,36.11
2018-09-26T15:33:51.059Z,36.40
2018-09-26T15:36:19.339Z,37.43
2018-09-26T15:38:47.435Z,37.24
2018-09-26T15:41:15.682Z,38.71
2018-09-26T15:43:43.859Z,39.31
2018-09-26T15:46:12.129Z,39.21
2018-09-26T15:48:40.303Z,38.76
2018-09-26T15:51:08.422Z,39.14
2018-09-26T15:53:36.742Z,38.48
2018-09-26T15:56:05.057Z,37.76
2018-09-26T15:58:33.170Z,37.33
2018-09-26T16:01:01.348Z,39.57
2018-09-26T16:03:29.532Z,40.46
2018-09-26T16:05:57.691Z,39.96
2018-09-26T16:08:25.997Z,40.58
2018-09-26T16:10:54.041Z,41.42
2018-09-26T16:13:22.208Z,41.31
2018-09-26T16:15:50.376Z,42.96
2018-09-26T16:18:18.620Z,43.01
2018-09-26T16:20:46.723Z,43.40
2018-09-26T16:23:14.955Z,43.97
2018-09-26T16:25:43.138Z,44.58
2018-09-26T16:28:11.327Z,45.01
2018-09-26T16:30:39.471Z,45.61
2018-09-26T16:33:07.747Z,47.22
2018-09-26T16:35:35.947Z,44.79
2018-09-26T16:38:04.132Z,44.46
2018-09-26T16:40:32.325Z,47.12
2018-09-26T16:43:00.530Z,45.40
2018-09-26T16:45:28.871Z,45.37
2018-09-26T16:47:57.119Z,46.04
2018-09-26T16:50:25.322Z,46.33
2018-09-26T16:52:53.467Z,48.24
2018-09-26T16:55:21.647Z,47.76
2018-09-26T16:57:49.811Z,48.85
2018-09-26T17:00:18.043Z,49.21
2018-09-26T17:02:46.183Z,51.66
2018-09-26T17:05:14.374Z,52.25
2018-09-26T17:07:42.543Z,53.27
2018-09-26T17:10:10.759Z,52.53
2018-09-26T17:12:38.992Z,52.90
2018-09-26T17:15:07.246Z,54.00
2018-09-26T17:17:35.414Z,54.05
2018-09-26T17:20:03.682Z,54.44
2018-09-26T17:22:31.846Z,55.39
2018-09-26T17:25:00.088Z,55.11
2018-09-26T17:27:28.242Z,55.51
2018-09-26T17:29:56.443Z,55.81
2018-09-26T17:32:25.120Z,56.55
2018-09-26T17:34:53.165Z,55.95
2018-09-26T17:37:21.335Z,55.97
2018-09-26T17:39:49.495Z,56.11
2018-09-26T17:42:17.919Z,56.71
2018-09-26T17:44:46.183Z,58.09
2018-09-26T17:47:15.040Z,57.56
2018-09-26T17:49:43.259Z,57.42
2018-09-26T17:52:11.832Z,57.70
2018-09-26T17:54:40.060Z,58.54
2018-09-26T17:57:08.471Z,58.02
2018-09-26T17:59:36.812Z,58.53
2018-09-26T18:02:05.043Z,58.29
2018-09-26T18:04:33.440Z,58.66
2018-09-26T18:07:03.546Z,58.60
2018-09-26T18:09:32.206Z,59.61
2018-09-26T18:12:01.030Z,59.06
2018-09-26T18:14:41.361Z,59.46
2018-09-26T18:17:10.795Z,59.99
2018-09-26T18:19:39.424Z,59.17
2018-09-26T18:22:09.197Z,59.35
2018-09-26T18:24:37.853Z,60.27
2018-09-26T18:27:07.281Z,60.46
2018-09-26T18:29:36.462Z,60.30
2018-09-26T18:32:04.881Z,61.37
2018-09-26T18:34:33.153Z,60.41
2018-09-26T18:37:02.158Z,60.92
2018-09-26T18:39:30.979Z,60.69
2018-09-26T18:41:59.461Z,61.71
2018-09-26T18:44:27.900Z,62.34
2018-09-26T18:46:56.368Z,61.39
2018-09-26T18:49:24.663Z,61.89
2018-09-26T18:51:53.021Z,61.03
2018-09-26T18:54:21.493Z,60.86
2018-09-26T18:56:49.988Z,61.85
2018-09-26T18:59:18.557Z,61.50
2018-09-26T19:01:46.885Z,62.37
2018-09-26T19:04:15.257Z,62.16
2018-09-26T19:06:43.663Z,61.81
2018-09-26T19:09:12.277Z,61.52
2018-09-26T19:11:40.563Z,62.06
2018-09-26T19:14:08.849Z,62.29
2018-09-26T19:16:37.028Z,62.58
2018-09-26T19:19:05.613Z,63.08
2018-09-26T19:21:33.981Z,62.98
2018-09-26T19:24:02.105Z,62.82
2018-09-26T19:26:32.435Z,62.90
2018-09-26T19:29:00.795Z,62.65
2018-09-26T19:31:28.995Z,62.39
2018-09-26T19:33:57.270Z,62.46
2018-09-26T19:36:25.762Z,62.26
2018-09-26T19:38:53.930Z,62.51
2018-09-26T19:41:22.023Z,62.19
2018-09-26T19:43:50.258Z,62.99
2018-09-26T19:46:18.423Z,62.61
2018-09-26T19:48:46.571Z,62.86
2018-09-26T19:51:14.731Z,63.00
2018-09-26T19:53:42.887Z,62.47
2018-09-26T19:56:11.175Z,62.31
2018-09-26T19:58:45.843Z,62.54
2018-09-26T20:01:13.994Z,62.27
2018-09-26T20:03:42.146Z,63.25
2018-09-26T20:06:10.310Z,62.15
2018-09-26T20:08:38.472Z,62.10
2018-09-26T20:11:07.455Z,62.97
2018-09-26T20:13:35.612Z,62.47
2018-09-26T20:16:03.809Z,62.55
2018-09-26T20:18:31.971Z,62.09
2018-09-26T20:21:00.124Z,62.79
2018-09-26T20:23:28.335Z,62.57
2018-09-26T20:25:56.471Z,62.24
2018-09-26T20:28:24.682Z,62.34
2018-09-26T20:30:52.878Z,63.30
2018-09-26T20:33:20.999Z,62.23
2018-09-26T20:35:49.160Z,63.60
2018-09-26T20:38:17.386Z,62.89
2018-09-26T20:40:45.547Z,62.05
2018-09-26T20:43:13.786Z,62.16
2018-09-26T20:45:41.952Z,61.99
2018-09-26T20:48:10.104Z,62.27
2018-09-26T20:50:38.274Z,61.95
2018-09-26T20:53:06.769Z,62.39
2018-09-26T20:55:35.015Z,62.34
2018-09-26T20:58:03.180Z,62.68
2018-09-26T21:00:31.425Z,62.89
2018-09-26T21:02:59.543Z,63.70
2018-09-26T21:05:27.722Z,63.55
2018-09-26T21:07:55.882Z,63.81
2018-09-26T21:10:24.106Z,63.47
2018-09-26T21:12:52.257Z,63.88
2018-09-26T21:15:20.427Z,63.54
2018-09-26T21:17:48.685Z,64.50
2018-09-26T21:20:16.812Z,63.28
2018-09-26T21:22:44.963Z,64.25
2018-09-26T21:25:13.139Z,63.83
2018-09-26T21:27:41.320Z,63.88
2018-09-26T21:30:09.471Z,63.98
2018-09-26T21:32:37.622Z,64.35
2018-09-26T21:35:05.798Z,63.87
2018-09-26T21:37:33.975Z,64.67
2018-09-26T21:40:02.190Z,64.64
2018-09-26T21:42:30.591Z,64.58
2018-09-26T21:44:58.747Z,63.79
2018-09-26T21:47:26.922Z,64.27
2018-09-26T21:49:55.137Z,63.97
2018-09-26T21:52:23.291Z,64.90
2018-09-26T21:54:51.534Z,64.21
2018-09-26T21:57:19.700Z,64.48
2018-09-26T21:59:47.885Z,64.37
2018-09-26T22:02:16.099Z,65.04
2018-09-26T22:04:44.323Z,64.52
2018-09-26T22:07:12.600Z,64.12
2018-09-26T22:09:40.769Z,64.96
2018-09-26T22:12:08.922Z,64.38
2018-09-26T22:14:37.107Z,63.73
2018-09-26T22:17:05.292Z,63.88
2018-09-26T22:19:33.453Z,64.70
2018-09-26T22:22:01.607Z,65.04
2018-09-26T22:24:29.758Z,64.67
2018-09-26T22:26:57.927Z,64.89
2018-09-26T22:29:26.083Z,64.38
2018-09-26T22:31:54.254Z,64.48
2018-09-26T22:34:22.420Z,64.66
2018-09-26T22:36:50.582Z,65.66
2018-09-26T22:39:18.783Z,64.27
2018-09-26T22:41:46.958Z,64.05
2018-09-26T22:44:15.123Z,64.14
2018-09-26T22:46:43.287Z,64.05
2018-09-26T22:49:11.463Z,65.37
2018-09-26T22:51:39.651Z,65.82
2018-09-26T22:54:07.824Z,65.20
2018-09-26T22:56:35.968Z,66.58
2018-09-26T22:59:04.131Z,65.72
2018-09-26T23:01:39.039Z,65.30
2018-09-26T23:04:07.447Z,65.34
2018-09-26T23:06:35.617Z,65.71
2018-09-26T23:09:04.631Z,65.34
2018-09-26T23:11:32.786Z,64.95
2018-09-26T23:14:00.950Z,65.72
2018-09-26T23:16:29.116Z,66.16
2018-09-26T23:18:57.301Z,66.27
2018-09-26T23:21:25.467Z,65.79
2018-09-26T23:23:53.632Z,65.40
2018-09-26T23:26:21.782Z,66.12
2018-09-26T23:28:49.952Z,65.19
2018-09-26T23:31:18.124Z,65.34
2018-09-26T23:33:46.271Z,65.88
2018-09-26T23:36:14.442Z,64.76
2018-09-26T23:38:42.630Z,64.69
2018-09-26T23:41:10.888Z,64.90
2018-09-26T23:43:39.044Z,64.80
2018-09-26T23:46:07.250Z,64.90
2018-09-26T23:48:35.411Z,64.94
2018-09-26T23:51:03.598Z,65.55
2018-09-26T23:53:31.786Z,65.65
2018-09-26T23:55:59.952Z,66.28
2018-09-26T23:58:28.111Z,65.81
